Time;durP1;ratioP1;P1;durP2;ratioP2;P2;SDS_P1;SDS_P2;PMS_P1;PMS_P2;Temp;Humidity;BMP_temperature;BMP_pressure;BME280_temperature;BME280_humidity;BME280_pressure;Samples;Min_cycle;Max_cycle;Signal;HPM_P1;HPM_P2
2023/03/26 00:01:23;;;;;;;;;1.67;1.33;;;;;12.28;56.71;100465.81;5059294;28;45247;-44
2023/03/26 00:03:53;;;;;;;;;3.00;0.00;;;;;12.26;56.15;100465.13;5059635;28;45387;-43
2023/03/26 00:06:25;;;;;;;;;1.00;1.00;;;;;12.22;56.91;100455.81;5059301;28;45484;-43
2023/03/26 00:08:51;;;;;;;;;4.33;2.00;;;;;12.21;57.92;100441.59;5058981;28;46448;-43
2023/03/26 00:11:19;;;;;;;;;3.67;2.00;;;;;12.18;58.15;100435.78;5058821;28;45401;-43
2023/03/26 00:13:45;;;;;;;;;1.00;1.00;;;;;12.14;57.84;100424.63;5058763;28;45412;-47
2023/03/26 00:16:12;;;;;;;;;0.67;0.00;;;;;12.08;58.13;100433.25;5058868;28;45296;-43
2023/03/26 00:18:39;;;;;;;;;3.00;1.00;;;;;12.02;58.21;100412.59;5058522;28;45476;-43
2023/03/26 00:21:06;;;;;;;;;1.67;0.67;;;;;11.98;58.53;100417.41;5058914;28;45226;-46
2023/03/26 00:23:34;;;;;;;;;4.33;1.00;;;;;11.95;58.23;100408.91;5058012;28;45537;-44
2023/03/26 00:26:01;;;;;;;;;5.33;1.00;;;;;11.86;58.81;100397.41;5058632;28;45328;-45
2023/03/26 00:28:30;;;;;;;;;1.00;1.00;;;;;11.84;59.25;100398.56;5040067;28;45479;-43
2023/03/26 00:30:57;;;;;;;;;1.00;1.00;;;;;11.75;60.28;100384.34;5058277;28;45448;-42
2023/03/26 00:33:23;;;;;;;;;6.00;2.00;;;;;11.67;61.46;100377.19;5058710;28;45292;-46
2023/03/26 00:35:53;;;;;;;;;5.00;3.00;;;;;11.67;60.72;100382.50;5058660;28;45464;-44
2023/03/26 00:38:22;;;;;;;;;4.67;1.00;;;;;11.63;61.85;100386.50;5058400;28;45454;-44
2023/03/26 00:40:49;;;;;;;;;2.00;2.00;;;;;11.58;62.01;100382.63;5058406;28;45248;-43
2023/03/26 00:43:19;;;;;;;;;2.00;2.00;;;;;11.55;61.65;100381.16;5058329;28;45333;-43
2023/03/26 00:45:53;;;;;;;;;1.00;1.00;;;;;11.52;62.27;100373.47;5058648;28;45610;-43
2023/03/26 00:48:20;;;;;;;;;2.00;2.00;;;;;11.52;63.36;100370.81;5058319;28;46384;-44
2023/03/26 00:50:47;;;;;;;;;1.33;0.00;;;;;11.44;63.01;100354.81;5058085;28;45456;-44
2023/03/26 00:53:14;;;;;;;;;4.33;2.00;;;;;11.30;64.22;100332.28;5058225;28;45403;-43
2023/03/26 00:55:40;;;;;;;;;0.00;0.00;;;;;11.31;63.38;100338.44;5058808;28;45392;-42
2023/03/26 00:58:09;;;;;;;;;0.67;0.00;;;;;11.15;64.18;100317.91;5058139;28;45606;-42
2023/03/26 01:00:38;;;;;;;;;4.33;1.67;;;;;11.23;66.06;100325.94;5057152;28;45442;-45
2023/03/26 01:03:04;;;;;;;;;5.33;1.00;;;;;11.19;65.04;100316.59;5058233;28;45443;-44
2023/03/26 01:05:32;;;;;;;;;3.00;1.00;;;;;11.16;64.80;100320.41;5058307;28;45397;-41
2023/03/26 01:08:13;;;;;;;;;5.67;1.00;;;;;11.09;65.26;100305.25;5057816;28;45376;-42
2023/03/26 01:10:40;;;;;;;;;1.00;1.00;;;;;10.96;66.95;100289.75;5039624;28;45500;-44
2023/03/26 01:13:06;;;;;;;;;3.67;1.00;;;;;10.96;65.85;100290.56;5057833;28;45412;-41
2023/03/26 01:15:32;;;;;;;;;2.00;0.00;;;;;10.93;66.00;100282.06;5057824;28;45497;-43
2023/03/26 01:17:57;;;;;;;;;2.67;1.00;;;;;10.83;67.23;100268.91;5057834;28;46590;-43
2023/03/26 01:20:29;;;;;;;;;0.33;0.33;;;;;10.64;69.22;100255.84;5057526;28;45330;-43
2023/03/26 01:23:04;;;;;;;;;2.00;0.00;;;;;10.70;68.68;100258.69;5057804;28;45334;-41
2023/03/26 01:25:36;;;;;;;;;1.00;1.00;;;;;10.65;68.16;100246.84;5058007;28;45462;-44
2023/03/26 01:28:07;;;;;;;;;2.67;1.00;;;;;10.58;69.03;100252.00;5057280;28;45713;-44
2023/03/26 01:31:05;;;;;;;;;1.00;1.00;;;;;10.54;71.27;100247.97;5057283;28;45370;-43
2023/03/26 01:33:37;;;;;;;;;0.67;0.67;;;;;10.54;69.04;100241.84;5035165;28;45500;-45
2023/03/26 01:36:35;;;;;;;;;3.00;2.00;;;;;10.48;71.84;100233.47;5018544;28;45481;-44
2023/03/26 01:39:00;;;;;;;;;1.00;1.00;;;;;10.47;72.97;100221.19;5029424;28;45437;-44
2023/03/26 01:41:37;;;;;;;;;0.00;0.00;;;;;10.45;70.66;100215.19;5034900;28;45318;-43
2023/03/26 01:44:20;;;;;;;;;2.00;0.33;;;;;10.37;74.19;100201.84;5035253;28;45533;-45
2023/03/26 01:46:47;;;;;;;;;5.00;1.33;;;;;10.33;71.74;100186.38;5035088;28;45292;-43
2023/03/26 01:49:12;;;;;;;;;6.00;2.00;;;;;10.26;74.64;100178.19;5033897;28;46168;-42
2023/03/26 01:51:40;;;;;;;;;0.00;0.00;;;;;10.22;73.38;100163.53;5035222;28;45432;-41
2023/03/26 01:54:11;;;;;;;;;5.67;1.00;;;;;10.13;74.49;100138.72;5035211;28;45406;-45
2023/03/26 01:57:14;;;;;;;;;2.67;1.00;;;;;10.13;76.73;100136.06;5035155;28;45455;-42
2023/03/26 01:59:48;;;;;;;;;2.00;2.00;;;;;10.14;75.48;100126.28;5028502;28;46334;-44
2023/03/26 02:02:53;;;;;;;;;1.00;1.00;;;;;10.17;75.86;100110.84;5034501;28;45528;-43
2023/03/26 02:05:47;;;;;;;;;1.00;1.00;;;;;10.22;75.23;100113.03;5034260;28;45556;-43
2023/03/26 02:08:36;;;;;;;;;2.00;2.00;;;;;10.14;78.21;100091.72;5034980;28;45371;-45
2023/03/26 02:11:11;;;;;;;;;2.00;1.00;;;;;10.08;75.86;100090.53;5056046;28;45370;-48
2023/03/26 02:13:39;;;;;;;;;2.00;2.00;;;;;10.05;79.59;100077.56;5038926;28;45363;-42
2023/03/26 02:16:10;;;;;;;;;1.00;1.00;;;;;10.03;78.90;100060.09;5057237;28;45293;-44
2023/03/26 02:18:35;;;;;;;;;1.67;0.00;;;;;10.04;78.96;100065.28;5057435;28;45292;-45
2023/03/26 02:21:04;;;;;;;;;5.00;2.00;;;;;10.02;79.23;100055.78;5056924;28;45360;-41
2023/03/26 02:23:34;;;;;;;;;1.00;1.00;;;;;10.02;80.62;100053.97;5056804;28;45644;-41
2023/03/26 02:26:01;;;;;;;;;6.00;2.00;;;;;10.02;79.54;100045.16;5056936;28;45526;-42
2023/03/26 02:28:26;;;;;;;;;1.00;1.00;;;;;9.96;79.76;100026.22;5056895;28;45367;-43
2023/03/26 02:30:56;;;;;;;;;4.00;1.00;;;;;10.00;79.94;100003.66;5056589;28;45323;-42
2023/03/26 02:33:22;;;;;;;;;1.00;1.00;;;;;9.99;77.74;99986.06;5056435;28;45946;-43
2023/03/26 02:35:47;;;;;;;;;5.33;0.67;;;;;9.87;78.81;99966.09;5056641;28;45359;-43
2023/03/26 02:38:13;;;;;;;;;3.67;1.00;;;;;9.99;79.01;99970.09;5072791;28;45577;-45
2023/03/26 02:40:40;;;;;;;;;3.33;1.00;;;;;10.00;77.85;99981.56;5056276;28;45899;-43
2023/03/26 02:43:05;;;;;;;;;3.00;1.33;;;;;10.01;76.47;99983.22;5056313;28;45232;-46
2023/03/26 02:45:31;;;;;;;;;3.33;2.00;;;;;10.02;78.30;99971.59;5072224;28;45255;-44
2023/03/26 02:47:56;;;;;;;;;3.33;1.00;;;;;10.00;77.93;99947.84;5056485;28;45326;-42
2023/03/26 02:50:22;;;;;;;;;4.00;1.33;;;;;10.01;77.84;99951.34;5055285;28;45323;-44
2023/03/26 02:52:48;;;;;;;;;2.00;2.00;;;;;9.95;78.25;99944.03;5056558;28;45518;-42
2023/03/26 02:55:14;;;;;;;;;1.00;1.00;;;;;9.99;79.50;99954.16;5056404;28;45182;-43
2023/03/26 02:57:40;;;;;;;;;3.00;1.33;;;;;9.89;78.67;99915.44;5056711;28;45358;-43
2023/03/26 03:00:14;;;;;;;;;2.00;2.00;;;;;10.00;79.43;99917.78;5056071;28;46262;-45
2023/03/26 03:02:40;;;;;;;;;2.00;1.00;;;;;10.11;78.59;99924.59;5056349;28;45428;-42
2023/03/26 03:05:06;;;;;;;;;2.00;1.00;;;;;10.14;77.70;99927.78;5056224;28;45287;-45
2023/03/26 03:07:36;;;;;;;;;0.00;0.00;;;;;10.16;78.96;99912.50;5056304;28;45474;-42
2023/03/26 03:10:02;;;;;;;;;1.00;0.00;;;;;10.22;77.91;99898.56;5055842;28;46905;-42
2023/03/26 03:12:28;;;;;;;;;2.00;2.00;;;;;10.26;77.91;99899.09;5055862;28;45334;-44
2023/03/26 03:14:53;;;;;;;;;1.00;1.00;;;;;10.24;77.91;99874.47;5054950;28;45466;-44
2023/03/26 03:17:21;;;;;;;;;5.00;0.33;;;;;10.36;78.06;99890.94;5057122;28;45298;-45
2023/03/26 03:19:46;;;;;;;;;3.67;1.00;;;;;10.42;77.31;99898.25;5059278;28;45979;-46
2023/03/26 03:22:11;;;;;;;;;2.00;1.00;;;;;10.44;77.18;99881.13;5059399;28;45391;-42
2023/03/26 03:24:37;;;;;;;;;1.00;1.00;;;;;10.49;76.42;99880.63;5059559;28;45282;-46
2023/03/26 03:27:03;;;;;;;;;2.00;0.00;;;;;10.54;76.60;99877.50;5059714;28;45382;-44
2023/03/26 03:29:28;;;;;;;;;2.33;2.00;;;;;10.54;76.29;99862.38;5059119;28;46282;-44
2023/03/26 03:31:54;;;;;;;;;4.33;0.67;;;;;10.64;75.92;99878.97;5059068;28;45276;-43
2023/03/26 03:34:20;;;;;;;;;0.00;0.00;;;;;10.66;76.30;99871.66;5059598;28;45284;-44
2023/03/26 03:36:47;;;;;;;;;1.67;1.67;;;;;10.64;76.06;99863.00;5059473;28;45411;-42
2023/03/26 03:39:13;;;;;;;;;1.00;1.00;;;;;10.70;75.58;99856.16;5058754;28;46252;-41
2023/03/26 03:41:38;;;;;;;;;0.00;0.00;;;;;10.72;75.58;99868.31;5059435;28;45365;-42
2023/03/26 03:44:04;;;;;;;;;2.00;0.67;;;;;10.77;75.56;99877.63;5074686;28;45284;-44
2023/03/26 03:46:30;;;;;;;;;0.00;0.00;;;;;10.74;74.80;99869.00;5059636;28;45419;-44
2023/03/26 03:48:55;;;;;;;;;3.67;1.00;;;;;10.82;74.05;99873.44;5058827;28;45974;-41
2023/03/26 03:51:21;;;;;;;;;0.00;0.00;;;;;10.86;74.32;99882.75;5058944;28;45377;-43
2023/03/26 03:53:46;;;;;;;;;0.67;0.33;;;;;10.89;74.11;99878.94;5059183;28;45323;-44
2023/03/26 03:56:13;;;;;;;;;2.00;1.00;;;;;10.92;73.65;99882.09;5059236;28;45304;-42
2023/03/26 03:58:39;;;;;;;;;0.00;0.00;;;;;10.91;73.65;99874.25;5058834;28;46373;-44
2023/03/26 04:01:05;;;;;;;;;0.33;0.00;;;;;10.92;73.58;99875.94;5058942;28;45179;-42
2023/03/26 04:03:37;;;;;;;;;0.00;0.00;;;;;10.92;73.63;99860.78;5058602;28;45375;-44
2023/03/26 04:06:05;;;;;;;;;2.00;0.00;;;;;10.88;73.30;99866.63;5059405;28;45489;-42
2023/03/26 04:08:31;;;;;;;;;0.00;0.00;;;;;10.90;72.79;99869.94;5058420;28;46618;-45
2023/03/26 04:10:57;;;;;;;;;0.00;0.00;;;;;10.79;71.98;99862.31;5058624;28;45491;-43
2023/03/26 04:13:23;;;;;;;;;0.00;0.00;;;;;10.92;72.38;99850.16;5058927;28;45254;-44
2023/03/26 04:15:48;;;;;;;;;1.33;0.00;;;;;10.93;71.65;99864.28;5059045;28;45483;-45
2023/03/26 04:18:13;;;;;;;;;0.00;0.00;;;;;10.92;71.26;99859.97;5058394;28;47191;-44
2023/03/26 04:20:45;;;;;;;;;1.00;0.00;;;;;10.93;71.13;99866.94;5058479;28;45329;-42
2023/03/26 04:23:13;;;;;;;;;0.00;0.00;;;;;10.93;70.63;99861.63;5058528;28;45281;-44
2023/03/26 04:25:40;;;;;;;;;0.67;0.67;;;;;10.91;70.49;99869.78;5058712;28;45436;-43
2023/03/26 04:28:07;;;;;;;;;0.00;0.00;;;;;10.96;70.38;99896.72;5057817;28;46218;-43
2023/03/26 04:30:33;;;;;;;;;0.00;0.00;;;;;10.88;69.70;99875.44;5058355;28;45536;-42
2023/03/26 04:33:05;;;;;;;;;0.00;0.00;;;;;10.96;69.63;99883.41;5058447;28;45529;-45
2023/03/26 04:35:35;;;;;;;;;0.00;0.00;;;;;11.01;69.80;99863.44;5058482;28;45410;-43
2023/03/26 04:38:06;;;;;;;;;0.00;0.00;;;;;10.97;69.19;99878.91;5058008;28;46130;-42
2023/03/26 04:40:33;;;;;;;;;1.00;0.00;;;;;11.04;68.87;99887.88;5057970;28;45344;-43
2023/03/26 04:43:01;;;;;;;;;0.00;0.00;;;;;11.08;69.11;99891.88;5058055;28;45348;-43
2023/03/26 04:45:29;;;;;;;;;0.67;0.00;;;;;11.10;68.95;99895.16;5057466;28;45516;-41
2023/03/26 04:47:55;;;;;;;;;0.00;0.00;;;;;11.06;68.55;99888.53;5057956;28;46407;-43
2023/03/26 04:50:21;;;;;;;;;0.00;0.00;;;;;11.11;69.02;99896.00;5058097;28;45389;-44
2023/03/26 04:52:46;;;;;;;;;0.00;0.00;;;;;11.07;68.88;99900.81;5058344;28;45358;-43
2023/03/26 04:55:26;;;;;;;;;1.00;0.00;;;;;11.06;68.29;99901.00;5058089;28;45483;-42
2023/03/26 04:57:58;;;;;;;;;0.00;0.00;;;;;11.06;68.10;99909.81;5057921;28;46150;-42
2023/03/26 05:00:25;;;;;;;;;1.00;0.00;;;;;11.02;67.88;99916.47;5057739;28;45474;-43
2023/03/26 05:02:54;;;;;;;;;1.00;0.00;;;;;11.02;67.60;99916.47;5057900;28;45467;-41
2023/03/26 05:05:20;;;;;;;;;0.00;0.00;;;;;11.00;67.27;99921.16;5058134;28;45274;-41
2023/03/26 05:07:45;;;;;;;;;0.00;0.00;;;;;10.99;67.42;99920.31;5057809;28;46018;-41
2023/03/26 05:10:13;;;;;;;;;0.00;0.00;;;;;11.00;67.68;99918.50;5057777;28;45332;-43
2023/03/26 05:12:39;;;;;;;;;0.00;0.00;;;;;11.01;67.22;99919.31;5057965;28;45368;-44
2023/03/26 05:15:05;;;;;;;;;0.00;0.00;;;;;11.03;67.51;99922.63;5058346;28;45417;-42
2023/03/26 05:17:33;;;;;;;;;0.00;0.00;;;;;11.01;66.86;99928.13;5057484;28;45894;-40
2023/03/26 05:19:59;;;;;;;;;2.00;0.00;;;;;11.00;67.30;99915.84;5057563;28;45178;-41
2023/03/26 05:22:25;;;;;;;;;0.00;0.00;;;;;10.99;66.84;99922.97;5057734;28;45344;-43
2023/03/26 05:24:51;;;;;;;;;1.00;0.00;;;;;10.97;67.03;99930.28;5057076;28;45261;-42
2023/03/26 05:27:18;;;;;;;;;0.67;0.00;;;;;10.93;67.56;99942.28;5057631;28;46111;-41
2023/03/26 05:29:45;;;;;;;;;0.33;0.00;;;;;10.91;67.29;99946.94;5057515;28;45388;-44
2023/03/26 05:32:10;;;;;;;;;0.00;0.00;;;;;10.93;67.38;99949.44;5057508;28;45247;-41
2023/03/26 05:34:37;;;;;;;;;0.00;0.00;;;;;10.88;67.05;99933.16;5057699;28;45304;-43
2023/03/26 05:37:03;;;;;;;;;0.00;0.00;;;;;10.91;67.10;99941.63;5057340;28;45330;-43
2023/03/26 05:39:29;;;;;;;;;0.00;0.00;;;;;10.90;67.02;99949.75;5056439;28;45402;-43
2023/03/26 05:41:54;;;;;;;;;0.00;0.00;;;;;10.93;66.87;99947.59;5057205;28;45219;-42
2023/03/26 05:44:20;;;;;;;;;1.00;0.00;;;;;10.92;66.71;99942.47;5057409;28;45373;-42
2023/03/26 05:46:45;;;;;;;;;0.00;0.00;;;;;10.80;66.90;99933.97;5057097;28;45374;-44
2023/03/26 05:49:10;;;;;;;;;0.33;0.00;;;;;10.91;66.81;99933.66;5072628;28;45354;-42
2023/03/26 05:51:35;;;;;;;;;0.00;0.00;;;;;10.92;66.58;99937.13;5057428;28;45310;-42
2023/03/26 05:54:01;;;;;;;;;0.00;0.00;;;;;10.90;66.57;99928.47;5057524;28;45391;-42
2023/03/26 05:56:26;;;;;;;;;3.33;0.00;;;;;10.83;66.52;99933.66;5057010;28;45601;-45
2023/03/26 05:58:52;;;;;;;;;0.00;0.00;;;;;10.77;66.71;99925.50;5057260;28;45427;-41
2023/03/26 06:01:18;;;;;;;;;0.00;0.00;;;;;10.71;66.55;99933.16;5057071;28;45795;-44
2023/03/26 06:03:44;;;;;;;;;1.00;0.00;;;;;10.66;66.52;99930.19;5057201;28;45394;-43
2023/03/26 06:06:19;;;;;;;;;0.00;0.00;;;;;10.65;66.03;99933.00;5056777;28;46200;-42
2023/03/26 06:08:50;;;;;;;;;1.67;0.00;;;;;10.63;66.30;99924.34;5055539;28;45348;-43
2023/03/26 06:11:18;;;;;;;;;0.00;0.00;;;;;10.62;66.38;99920.88;5057143;28;45382;-43
2023/03/26 06:13:44;;;;;;;;;0.00;0.00;;;;;10.64;66.01;99939.31;5057007;28;45427;-46
2023/03/26 06:16:11;;;;;;;;;1.67;0.00;;;;;10.64;66.02;99928.66;5056685;28;47125;-43
2023/03/26 06:18:37;;;;;;;;;1.00;0.00;;;;;10.63;65.82;99941.16;5056668;28;45370;-44
2023/03/26 06:21:04;;;;;;;;;0.00;0.00;;;;;10.67;65.68;99936.31;5056815;28;45246;-41
2023/03/26 06:23:30;;;;;;;;;0.00;0.00;;;;;10.68;65.67;99940.63;5056816;28;45442;-43
2023/03/26 06:25:55;;;;;;;;;3.00;1.00;;;;;10.77;65.65;99957.44;5056532;28;46174;-42
2023/03/26 06:28:21;;;;;;;;;1.33;1.00;;;;;10.82;65.40;99965.72;5056604;28;45306;-42
2023/03/26 06:30:46;;;;;;;;;2.00;0.00;;;;;10.86;65.25;99956.41;5038600;28;45594;-43
2023/03/26 06:33:11;;;;;;;;;5.00;0.00;;;;;10.91;65.12;99948.75;5056652;28;45324;-44
2023/03/26 06:35:37;;;;;;;;;2.00;0.00;;;;;10.94;64.61;99951.09;5056467;28;47315;-42
2023/03/26 06:38:03;;;;;;;;;1.00;0.00;;;;;10.96;64.90;99941.94;5056568;28;45461;-43
2023/03/26 06:40:29;;;;;;;;;2.67;1.33;;;;;11.04;64.72;99938.44;5056350;28;45418;-43
2023/03/26 06:42:55;;;;;;;;;1.33;0.00;;;;;11.08;64.75;99950.41;5056829;28;45375;-42
2023/03/26 06:45:21;;;;;;;;;6.33;0.00;;;;;11.12;64.35;99959.69;5037294;28;45483;-43
2023/03/26 06:47:46;;;;;;;;;3.33;1.00;;;;;11.16;64.05;99961.03;5056365;28;45222;-43
2023/03/26 06:50:12;;;;;;;;;0.00;0.00;;;;;11.18;64.00;99953.72;5056435;28;45434;-42
2023/03/26 06:52:38;;;;;;;;;5.00;1.33;;;;;11.22;64.07;99956.88;5059370;28;45327;-43
2023/03/26 06:55:05;;;;;;;;;0.00;0.00;;;;;11.24;63.84;99969.00;5059808;28;46115;-45
2023/03/26 06:57:30;;;;;;;;;3.00;0.00;;;;;11.28;63.33;99955.34;5059920;28;45395;-43
2023/03/26 06:59:56;;;;;;;;;1.00;1.00;;;;;11.37;63.51;99967.63;5059861;28;45338;-44
2023/03/26 07:02:21;;;;;;;;;0.00;0.00;;;;;11.45;63.40;99963.09;5060137;28;45414;-42
2023/03/26 07:04:47;;;;;;;;;5.00;0.00;;;;;11.46;63.02;99966.59;5059351;28;46067;-44
2023/03/26 07:07:13;;;;;;;;;5.33;0.33;;;;;11.48;62.64;99985.91;5059830;28;45493;-43
2023/03/26 07:09:38;;;;;;;;;2.00;0.00;;;;;11.49;62.81;99972.41;5059607;28;45430;-43
2023/03/26 07:12:04;;;;;;;;;1.00;0.00;;;;;11.52;62.86;99970.44;5041744;28;45482;-43
2023/03/26 07:14:31;;;;;;;;;2.00;0.67;;;;;11.45;62.41;99970.28;5059585;28;45343;-46
2023/03/26 07:16:59;;;;;;;;;0.00;0.00;;;;;11.51;63.03;99982.09;5074033;28;45220;-44
2023/03/26 07:19:25;;;;;;;;;1.67;0.00;;;;;11.49;62.45;99993.72;5059627;28;45459;-45
2023/03/26 07:21:51;;;;;;;;;1.33;1.00;;;;;11.48;62.80;99996.56;5059516;28;45476;-41
2023/03/26 07:24:17;;;;;;;;;0.00;0.00;;;;;11.52;62.83;99999.72;5059134;28;47052;-43
2023/03/26 07:27:09;;;;;;;;;2.00;0.00;;;;;11.54;62.80;99987.88;5059413;28;45829;-44
2023/03/26 07:29:51;;;;;;;;;4.67;0.00;;;;;11.58;62.67;99994.53;5059644;28;45411;-41
2023/03/26 07:32:39;;;;;;;;;1.50;1.50;;;;;11.66;62.22;99991.00;5059596;28;45313;-44
2023/03/26 07:35:24;;;;;;;;;1.33;0.00;;;;;11.74;62.11;99991.81;5059166;28;46383;-41
2023/03/26 07:38:10;;;;;;;;;1.00;1.00;;;;;11.81;62.03;99989.31;5059109;28;45265;-40
2023/03/26 07:41:15;;;;;;;;;0.00;0.00;;;;;11.97;62.31;99999.09;5059222;28;45387;-41
2023/03/26 07:44:00;;;;;;;;;1.33;1.33;;;;;11.97;61.42;100012.44;5037030;28;45541;-41
2023/03/26 07:46:30;;;;;;;;;1.67;1.00;;;;;11.96;61.57;100008.91;5019248;28;46032;-41
2023/03/26 07:48:57;;;;;;;;;1.00;1.00;;;;;11.96;61.73;100013.41;5036301;28;45445;-41
2023/03/26 07:51:23;;;;;;;;;3.00;1.67;;;;;11.99;61.61;100005.91;5036736;28;45586;-41
2023/03/26 07:53:48;;;;;;;;;1.00;1.00;;;;;12.05;62.13;100016.88;5036863;28;45462;-41
2023/03/26 07:56:16;;;;;;;;;2.00;0.00;;;;;12.13;61.84;100007.00;5048046;28;45438;-43
2023/03/26 07:59:14;;;;;;;;;2.00;0.67;;;;;12.27;61.22;100021.44;5056473;28;45487;-43
2023/03/26 08:01:54;;;;;;;;;1.33;1.00;;;;;12.42;61.50;100010.84;5056578;28;45359;-43
2023/03/26 08:04:30;;;;;;;;;0.00;0.00;;;;;12.44;60.63;100017.66;5055619;28;45466;-41
2023/03/26 08:07:02;;;;;;;;;0.33;0.33;;;;;12.39;60.87;100020.03;5056667;28;46101;-43
2023/03/26 08:09:30;;;;;;;;;3.00;1.00;;;;;12.37;60.92;100016.69;5056333;28;45385;-43
2023/03/26 08:11:57;;;;;;;;;2.00;2.00;;;;;12.34;61.11;100011.72;5056229;28;45432;-44
2023/03/26 08:14:36;;;;;;;;;3.00;1.33;;;;;12.29;61.56;100019.41;5056840;28;45538;-41
2023/03/26 08:17:15;;;;;;;;;2.67;2.00;;;;;12.29;61.59;100011.41;5056380;28;45380;-41
2023/03/26 08:20:04;;;;;;;;;2.00;1.00;;;;;12.23;61.84;100015.63;5057568;28;45436;-41
2023/03/26 08:22:39;;;;;;;;;2.00;2.00;;;;;12.22;62.07;100024.63;5058439;28;45445;-42
2023/03/26 08:25:26;;;;;;;;;3.67;1.00;;;;;12.26;62.22;100032.25;5091211;27;45379;-42
2023/03/26 08:28:10;;;;;;;;;7.00;1.00;;;;;12.29;61.68;100021.25;5058039;28;46952;-42
2023/03/26 08:30:36;;;;;;;;;6.33;2.67;;;;;12.30;61.64;100022.91;5058198;28;45418;-41
2023/03/26 08:33:10;;;;;;;;;1.00;1.00;;;;;12.29;61.80;100030.06;5058383;28;45394;-40
2023/03/26 08:35:40;;;;;;;;;1.33;0.00;;;;;12.29;61.57;100015.91;5058623;28;45540;-42
2023/03/26 08:38:07;;;;;;;;;2.00;0.00;;;;;12.28;62.05;100027.59;5058060;28;46139;-48
2023/03/26 08:40:56;;;;;;;;;3.00;0.00;;;;;12.26;61.97;100026.94;5058189;28;45478;-42
2023/03/26 08:43:54;;;;;;;;;2.33;0.00;;;;;12.24;61.46;100035.94;5058222;28;45379;-41
2023/03/26 08:46:37;;;;;;;;;2.33;1.00;;;;;12.22;62.05;100032.63;5058355;28;46088;-41
2023/03/26 08:49:36;;;;;;;;;5.33;3.67;;;;;12.22;61.57;100039.81;5057841;28;47337;-42
2023/03/26 08:52:26;;;;;;;;;2.00;1.00;;;;;12.29;61.24;100034.59;5058131;28;45323;-43
2023/03/26 08:55:30;;;;;;;;;2.67;1.00;;;;;12.34;61.12;100037.56;5058116;28;45413;-42
2023/03/26 08:58:08;;;;;;;;;1.67;1.67;;;;;12.40;60.35;100040.34;5054208;27;45333;-43
2023/03/26 09:01:11;;;;;;;;;1.67;1.00;;;;;12.44;60.54;100035.50;5057651;28;46561;-43
2023/03/26 09:03:52;;;;;;;;;2.00;0.33;;;;;12.44;60.66;100043.50;5055693;28;45555;-42
2023/03/26 09:06:25;;;;;;;;;2.00;1.67;;;;;12.50;59.98;100048.13;5038852;28;45321;-44
2023/03/26 09:09:09;;;;;;;;;3.00;0.00;;;;;12.54;59.54;100051.28;5055948;28;45422;-44
2023/03/26 09:12:00;;;;;;;;;1.33;0.00;;;;;12.52;60.15;100055.97;5055315;28;47173;-44
2023/03/26 09:15:03;;;;;;;;;1.33;0.00;;;;;12.53;59.28;100058.47;5055028;28;45450;-42
2023/03/26 09:17:31;;;;;;;;;0.67;0.67;;;;;12.54;59.46;100045.94;5055691;28;45490;-43
2023/03/26 09:20:02;;;;;;;;;3.67;0.33;;;;;12.56;59.28;100059.94;5055468;28;45365;-43
2023/03/26 09:22:36;;;;;;;;;1.33;0.67;;;;;12.57;59.34;100065.09;5055500;28;46396;-44
2023/03/26 09:25:13;;;;;;;;;5.00;0.00;;;;;12.55;59.27;100061.75;5055450;28;45441;-44
2023/03/26 09:27:53;;;;;;;;;1.33;0.00;;;;;12.56;58.28;100060.78;5038552;28;45409;-43
2023/03/26 09:30:27;;;;;;;;;1.00;0.00;;;;;12.57;59.15;100074.94;5055346;28;45435;-41
2023/03/26 09:33:20;;;;;;;;;1.00;1.00;;;;;12.50;58.90;100072.13;5055308;28;47102;-43
2023/03/26 09:35:52;;;;;;;;;0.00;0.00;;;;;12.35;58.88;100056.06;5057142;28;45384;-43
2023/03/26 09:38:36;;;;;;;;;0.00;0.00;;;;;12.42;58.50;100059.66;5057700;28;45368;-42
2023/03/26 09:41:20;;;;;;;;;0.67;0.00;;;;;12.37;58.20;100066.53;5057325;28;45453;-42
2023/03/26 09:44:09;;;;;;;;;0.00;0.00;;;;;12.34;58.68;100062.38;5057113;28;46150;-42
2023/03/26 09:46:45;;;;;;;;;0.00;0.00;;;;;12.33;58.27;100073.22;5057325;28;45290;-43
2023/03/26 09:49:48;;;;;;;;;0.00;0.00;;;;;12.35;58.61;100076.56;5057326;28;45335;-43
2023/03/26 09:52:43;;;;;;;;;2.67;0.00;;;;;12.36;58.44;100081.72;5038074;28;45395;-40
2023/03/26 09:55:32;;;;;;;;;2.00;0.00;;;;;12.42;58.38;100090.84;5014884;28;46364;-40
2023/03/26 09:58:19;;;;;;;;;6.67;0.00;;;;;12.47;57.72;100109.81;5014711;28;45393;-42
2023/03/26 10:01:04;;;;;;;;;0.00;0.00;;;;;12.44;57.92;100095.03;5014962;28;45436;-40
2023/03/26 10:03:44;;;;;;;;;0.33;0.33;;;;;12.44;58.37;100097.69;5014945;28;45548;-42
2023/03/26 10:06:41;;;;;;;;;0.67;0.00;;;;;12.39;58.42;100097.38;5014453;28;46441;-41
2023/03/26 10:09:32;;;;;;;;;0.00;0.00;;;;;12.36;58.15;100102.22;5014819;28;45321;-42
2023/03/26 10:12:01;;;;;;;;;0.00;0.00;;;;;12.35;58.31;100098.72;5014802;28;45356;-41
2023/03/26 10:14:49;;;;;;;;;1.00;0.00;;;;;12.34;58.06;100102.38;5014575;28;45539;-43
2023/03/26 10:17:36;;;;;;;;;0.00;0.00;;;;;12.37;58.30;100102.03;5014479;28;46382;-45
2023/03/26 10:20:36;;;;;;;;;0.00;0.00;;;;;12.39;57.78;100113.38;5014339;28;45519;-41
2023/03/26 10:23:12;;;;;;;;;0.00;0.00;;;;;12.37;58.13;100106.56;5014771;28;45356;-44
2023/03/26 10:25:38;;;;;;;;;0.67;0.00;;;;;12.39;57.92;100110.72;5014906;28;45330;-42
2023/03/26 10:28:32;;;;;;;;;0.00;0.00;;;;;12.43;58.15;100116.50;5019548;28;45966;-42
2023/03/26 10:31:29;;;;;;;;;1.33;0.00;;;;;12.52;57.94;100120.00;4978293;28;45477;-43
2023/03/26 10:34:09;;;;;;;;;0.00;0.00;;;;;12.68;57.63;100126.09;4952082;28;45546;-42
2023/03/26 10:36:41;;;;;;;;;0.00;0.00;;;;;12.84;56.92;100130.47;4978521;28;45427;-42
2023/03/26 10:39:28;;;;;;;;;0.00;0.00;;;;;12.93;56.63;100126.72;4978283;28;46292;-42
2023/03/26 10:42:39;;;;;;;;;1.67;0.00;;;;;13.01;56.04;100119.69;4978403;28;45516;-43
2023/03/26 10:45:22;;;;;;;;;1.00;1.00;;;;;13.20;55.97;100119.22;4901120;29;45343;-44
2023/03/26 10:47:53;;;;;;;;;0.67;0.67;;;;;14.14;54.88;100133.03;4901671;29;45459;-42
2023/03/26 10:50:37;;;;;;;;;1.33;0.67;;;;;14.84;53.33;100126.34;4901124;29;46120;-44
2023/03/26 10:53:22;;;;;;;;;3.67;1.00;;;;;15.25;51.96;100131.06;4901098;29;45467;-41
2023/03/26 10:55:57;;;;;;;;;0.00;0.00;;;;;15.03;51.66;100128.38;4882541;29;45413;-42
2023/03/26 10:58:25;;;;;;;;;0.00;0.00;;;;;14.75;52.34;100130.97;4882627;29;45501;-41
2023/03/26 11:01:10;;;;;;;;;3.00;0.00;;;;;14.56;52.89;100136.91;4881760;29;46369;-41
2023/03/26 11:03:42;;;;;;;;;0.00;0.00;;;;;14.71;53.36;100122.50;4881567;29;45377;-42
2023/03/26 11:06:34;;;;;;;;;0.00;0.00;;;;;15.01;52.23;100125.06;4882195;29;45398;-42
2023/03/26 11:09:11;;;;;;;;;0.00;0.00;;;;;16.65;49.87;100133.66;4920553;28;45442;-42
2023/03/26 11:12:00;;;;;;;;;1.00;1.00;;;;;18.22;47.24;100126.94;4919889;28;46398;-42
2023/03/26 11:14:41;;;;;;;;;1.00;0.00;;;;;18.87;45.55;100116.94;4919630;28;45512;-42
2023/03/26 11:17:18;;;;;;;;;1.00;0.00;;;;;18.48;44.91;100120.63;4920059;28;45435;-43
2023/03/26 11:19:51;;;;;;;;;0.00;0.00;;;;;19.11;45.35;100123.44;4919989;28;45549;-41
2023/03/26 11:22:50;;;;;;;;;1.00;0.00;;;;;19.88;42.45;100113.28;4980869;28;46122;-42
2023/03/26 11:25:45;;;;;;;;;0.00;0.00;;;;;20.07;41.85;100114.97;4900507;29;45547;-43
2023/03/26 11:28:25;;;;;;;;;2.00;0.00;;;;;19.17;43.83;100114.47;4900725;29;45412;-42
2023/03/26 11:30:53;;;;;;;;;3.00;2.00;;;;;20.52;41.50;100108.44;4900736;29;45419;-41
2023/03/26 11:33:28;;;;;;;;;1.00;0.25;;;;;21.17;41.30;100101.28;4926080;28;46170;-43
2023/03/26 11:36:00;;;;;;;;;0.00;0.00;;;;;20.86;40.63;100094.25;4938382;28;45578;-42
2023/03/26 11:38:32;;;;;;;;;9.50;9.50;;;;;20.02;42.27;100087.00;4937488;28;45452;-43
2023/03/26 11:41:00;;;;;;;;;7.75;5.25;;;;;19.58;43.78;100095.06;4938434;28;45489;-43
2023/03/26 11:43:34;;;;;;;;;20.33;14.00;;;;;20.69;41.73;100087.84;4938436;28;46341;-43
2023/03/26 11:46:05;;;;;;;;;9.75;9.00;;;;;21.59;41.04;100081.47;4938467;28;45406;-44
2023/03/26 11:48:38;;;;;;;;;2.75;1.00;;;;;21.13;40.08;100091.16;4938545;28;45719;-43
2023/03/26 11:51:09;;;;;;;;;4.00;0.25;;;;;20.25;39.72;100084.41;4938733;28;45366;-43
2023/03/26 11:53:38;;;;;;;;;1.00;0.00;;;;;19.46;40.79;100094.13;4938644;28;45493;-42
2023/03/26 11:56:24;;;;;;;;;0.20;0.20;;;;;18.78;42.88;100107.47;4938435;28;45598;-43